| time (UTC) | temp F | wind direction | speed MPH | gust MPH | rain 1hr in | rain 24hr in | rain mn in | humidity % | barometer mb |
| 20260505101532 | 43 | 16 | 6.0 | 0.0 | 0.00 | 0.00 | 0.00 | 100 | 1003.5 |
| 20260505100050 | 43 | 308 | 7.0 | 0.0 | 0.00 | 0.00 | 0.00 | 100 | 1003.4 |
| 20260505094510 | 44 | 0 | 6.0 | 0.0 | 0.00 | 0.00 | 0.00 | 100 | 1003.2 |
| 20260505093040 | 44 | 344 | 6.0 | 0.0 | 0.00 | 0.00 | 0.00 | 100 | 1003.2 |
| 20260505091505 | 44 | 304 | 6.0 | 0.0 | 0.00 | 0.00 | 0.00 | 100 | 1002.6 |
| 20260505090031 | 45 | 0 | 7.0 | 0.0 | 0.00 | 0.00 | 0.00 | 100 | 1001.3 |
| 20260505084509 | 48 | 0 | 3.0 | 0.0 | 0.00 | 0.00 | 0.00 | 100 | 1000.3 |
| 20260505083035 | 50 | 14 | 0.0 | 0.0 | 0.00 | 0.00 | 0.00 | 100 | 1000.4 |
| 20260505081603 | 50 | 347 | 1.0 | 0.0 | 0.00 | 0.00 | 0.00 | 100 | 1000.4 |
| 20260505081505 | 50 | 343 | 1.0 | 0.0 | 0.00 | 0.00 | 0.00 | 100 | 1000.4 |
| 20260505080031 | 50 | 189 | 0.0 | 0.0 | 0.00 | 0.00 | 0.00 | 100 | 1001.1 |
| 20260505074509 | 51 | 189 | 0.0 | 0.0 | 0.00 | 0.00 | 0.00 | 100 | 1001.1 |
| 20260505073034 | 51 | 189 | 0.0 | 0.0 | 0.00 | 0.00 | 0.00 | 100 | 1001.2 |
| 20260505071557 | 51 | 189 | 0.0 | 0.0 | 0.00 | 0.00 | 0.00 | 100 | 1001.3 |
| 20260505070011 | 51 | 189 | 0.0 | 0.0 | 0.00 | 0.00 | 0.00 | 100 | 1001.5 |
| 20260505064535 | 50 | 189 | 0.0 | 0.0 | 0.00 | 0.00 | 0.00 | 100 | 1001.8 |
| 20260505063133 | 50 | 189 | 0.0 | 0.0 | 0.00 | 0.00 | 0.00 | 100 | 1001.8 |
| 20260505063002 | 50 | 189 | 0.0 | 0.0 | 0.00 | 0.00 | 0.00 | 100 | 1001.8 |
| 20260505061526 | 49 | 189 | 0.0 | 0.0 | 0.00 | 0.00 | 0.00 | 100 | 1001.9 |
| 20260505060044 | 49 | 185 | 0.0 | 0.0 | 0.00 | 0.00 | 0.00 | 100 | 1000.1 |
| 20260505054610 | 50 | 185 | 0.0 | 0.0 | 0.00 | 0.00 | 0.08 | 100 | 1000.2 |
| 20260505054504 | 50 | 185 | 0.0 | 0.0 | 0.00 | 0.00 | 0.08 | 100 | 1000.2 |
| 20260505053023 | 49 | 185 | 1.0 | 0.0 | 0.00 | 0.00 | 0.08 | 100 | 1000.2 |
| 20260505051610 | 49 | 196 | 0.0 | 0.0 | 0.00 | 0.00 | 0.08 | 100 | 1000.0 |
| 20260505041556 | 50 | 241 | 1.0 | 0.0 | 0.00 | 0.00 | 0.08 | 100 | 1001.2 |
| 20260505040018 | 49 | 292 | 1.0 | 0.0 | 0.00 | 0.00 | 0.07 | 100 | 1001.7 |
| 20260505034530 | 48 | 292 | 7.0 | 0.0 | 0.00 | 0.00 | 0.06 | 100 | 1002.1 |
| 20260505033012 | 49 | 302 | 9.0 | 0.0 | 0.00 | 0.00 | 0.04 | 100 | 1001.9 |
| 20260505031550 | 51 | 313 | 9.0 | 0.0 | 0.00 | 0.00 | 0.02 | 82 | 1001.8 |
| 20260505030016 | 53 | 318 | 7.0 | 0.0 | 0.00 | 0.00 | 0.00 | 64 | 1001.3 |
| 20260505024555 | 54 | 288 | 3.0 | 0.0 | 0.00 | 0.00 | 0.00 | 61 | 1000.7 |
| 20260505023019 | 55 | 0 | 3.0 | 0.0 | 0.00 | 0.00 | 0.00 | 59 | 1000.0 |
| 20260505021551 | 57 | 332 | 2.0 | 0.0 | 0.00 | 0.00 | 0.00 | 53 | 999.4 |
| 20260505020014 | 58 | 229 | 0.0 | 0.0 | 0.00 | 0.00 | 0.00 | 54 | 1000.9 |
| 20260505014532 | 58 | 229 | 0.0 | 0.0 | 0.00 | 0.00 | 0.00 | 52 | 1000.2 |
| 20260505013104 | 58 | 136 | 0.0 | 0.0 | 0.00 | 0.00 | 0.00 | 52 | 1000.5 |
| 20260505011517 | 56 | 47 | 0.0 | 0.0 | 0.00 | 0.00 | 0.00 | 54 | 1000.5 |
| 20260505010109 | 56 | 92 | 0.0 | 0.0 | 0.00 | 0.00 | 0.00 | 56 | 1001.5 |
| 20260505004522 | 56 | 193 | 3.0 | 0.0 | 0.00 | 0.00 | 0.00 | 59 | 1001.6 |
| 20260505003056 | 59 | 181 | 3.0 | 0.0 | 0.00 | 0.00 | 0.00 | 48 | 1001.4 |
| 20260505001524 | 60 | 318 | 4.0 | 0.0 | 0.00 | 0.00 | 0.00 | 40 | 1000.7 |
| 20260505000016 | 61 | 284 | 5.0 | 0.0 | 0.00 | 0.00 | 0.00 | 38 | 1000.7 |
| 20260504234554 | 61 | 282 | 3.0 | 0.0 | 0.00 | 0.00 | 0.00 | 35 | 1000.0 |
| 20260504233010 | 61 | 309 | 7.0 | 0.0 | 0.00 | 0.00 | 0.00 | 35 | 999.8 |
| 20260504231529 | 62 | 329 | 5.0 | 0.0 | 0.00 | 0.00 | 0.00 | 33 | 999.7 |
| 20260504230056 | 62 | 343 | 6.0 | 0.0 | 0.00 | 0.00 | 0.00 | 33 | 999.4 |
| 20260504224514 | 63 | 343 | 6.0 | 0.0 | 0.00 | 0.00 | 0.00 | 30 | 999.4 |
| 20260504223042 | 62 | 288 | 7.0 | 0.0 | 0.00 | 0.00 | 0.00 | 32 | 999.6 |
| 20260504221512 | 63 | 339 | 8.0 | 0.0 | 0.00 | 0.00 | 0.00 | 28 | 999.7 |
| 20260504220039 | 63 | 349 | 7.0 | 0.0 | 0.00 | 0.00 | 0.00 | 30 | 998.7 |
| 20260504214558 | 65 | 17 | 7.0 | 0.0 | 0.00 | 0.00 | 0.00 | 26 | 997.7 |
| 20260504213028 | 69 | 56 | 5.0 | 0.0 | 0.00 | 0.00 | 0.00 | 20 | 996.8 |
| 20260504211558 | 70 | 17 | 5.0 | 0.0 | 0.00 | 0.00 | 0.00 | 19 | 996.5 |
| 20260504211502 | 70 | 59 | 5.0 | 0.0 | 0.00 | 0.00 | 0.00 | 20 | 996.5 |
| 20260504210031 | 68 | 346 | 3.0 | 0.0 | 0.00 | 0.00 | 0.00 | 22 | 997.2 |
| 20260504204605 | 66 | 48 | 5.0 | 0.0 | 0.00 | 0.00 | 0.00 | 26 | 998.2 |
| 20260504203025 | 65 | 319 | 5.0 | 0.0 | 0.00 | 0.00 | 0.00 | 28 | 998.7 |
| 20260504201538 | 65 | 223 | 4.0 | 0.0 | 0.00 | 0.00 | 0.00 | 28 | 998.8 |
| 20260504200020 | 63 | 14 | 5.0 | 0.0 | 0.00 | 0.00 | 0.00 | 33 | 997.9 |
| 20260504194544 | 62 | 10 | 6.0 | 0.0 | 0.00 | 0.00 | 0.00 | 29 | 998.4 |
| 20260504193024 | 62 | 336 | 1.0 | 0.0 | 0.00 | 0.00 | 0.00 | 34 | 999.3 |
| 20260504191544 | 60 | 220 | 4.0 | 0.0 | 0.00 | 0.00 | 0.00 | 37 | 999.4 |
| 20260504190007 | 62 | 260 | 10.0 | 0.0 | 0.00 | 0.00 | 0.00 | 28 | 998.4 |
| 20260504184540 | 66 | 161 | 8.0 | 0.0 | 0.00 | 0.00 | 0.00 | 22 | 997.0 |
| 20260504183057 | 69 | 352 | 5.0 | 0.0 | 0.00 | 0.00 | 0.00 | 17 | 996.1 |
| 20260504181530 | 70 | 13 | 6.0 | 0.0 | 0.00 | 0.00 | 0.00 | 17 | 996.0 |
| 20260504180016 | 71 | 38 | 6.0 | 0.0 | 0.00 | 0.00 | 0.00 | 18 | 994.9 |
| 20260504174532 | 71 | 335 | 3.0 | 0.0 | 0.00 | 0.00 | 0.00 | 17 | 995.2 |
| 20260504173059 | 71 | 332 | 4.0 | 0.0 | 0.00 | 0.00 | 0.00 | 17 | 995.6 |
| 20260504171525 | 70 | 357 | 4.0 | 0.0 | 0.00 | 0.00 | 0.00 | 18 | 995.6 |